RJOO/ITM METAR and TAF weather

Enter ICAO airport designator
Station Type Date Time Source
RJOO METAR 2024/04/18 07:00 UTC NOAA

RJOO 180700Z 35016G26KT 8000 FEW030 SCT150 BKN170 20/05 Q1003


Station Type Date Time Source
RJOO Decoded METAR 2024/04/18 07:00 UTC NOAA

Osaka International Airport, Japan (RJOO) 34-47N 135-27E 15M
Apr 18, 2024 - 03:00 AM EDT / 2024.04.18 0700 UTC
Wind: from the N (350 degrees) at 18 MPH (16 KT) gusting to 30 MPH (26 KT):0
Visibility: 4 mile(s):0
Sky conditions: mostly cloudy
Temperature: 68 F (20 C)
Dew Point: 41 F (5 C)
Relative Humidity: 37%
Pressure (altimeter): 29.62 in. Hg (1003 hPa)
ob: RJOO 180700Z 35016G26KT 8000 FEW030 SCT150 BKN170 20/05 Q1003
cycle: 7

Station Type Date Time Source
RJOO TAF 2024/04/18 18:28 UTC NOAA